Time;durP1;ratioP1;P1;durP2;ratioP2;P2;SDS_P1;SDS_P2;PMS_P1;PMS_P2;Temp;Humidity;BMP_temperature;BMP_pressure;BME280_temperature;BME280_humidity;BME280_pressure;Samples;Min_cycle;Max_cycle;Signal;HPM_P1;HPM_P2
2024/01/29 00:00:45;;;;;;;12.15;9.20;;;;;;;2.20;100.00;94536.97;5072266;28;20040;-71
2024/01/29 00:03:12;;;;;;;15.10;9.90;;;;;;;2.23;100.00;94535.91;5072563;28;20439;-72
2024/01/29 00:05:39;;;;;;;12.88;9.15;;;;;;;2.07;100.00;94534.63;5068835;28;20059;-72
2024/01/29 00:08:08;;;;;;;13.70;9.05;;;;;;;2.06;100.00;94540.63;5074117;28;20044;-71
2024/01/29 00:10:35;;;;;;;15.23;12.00;;;;;;;2.08;100.00;94537.97;5078155;28;20777;-71
2024/01/29 00:13:01;;;;;;;12.65;9.68;;;;;;;1.82;100.00;94544.19;5080682;28;20443;-71
2024/01/29 00:15:28;;;;;;;15.80;9.75;;;;;;;1.33;100.00;94542.06;5077682;28;20049;-71
2024/01/29 00:17:55;;;;;;;12.68;8.68;;;;;;;1.64;100.00;94548.19;5074696;28;20044;-71
2024/01/29 00:20:22;;;;;;;11.60;8.63;;;;;;;1.58;100.00;94540.13;5080178;28;20058;-71
2024/01/29 00:22:49;;;;;;;13.23;10.00;;;;;;;1.53;100.00;94539.69;5071428;28;20484;-71
2024/01/29 00:25:18;;;;;;;14.13;10.73;;;;;;;1.52;100.00;94547.44;5074167;28;20048;-71
2024/01/29 00:27:44;;;;;;;11.38;8.68;;;;;;;1.48;100.00;94546.06;5073245;28;20047;-72
2024/01/29 00:30:12;;;;;;;12.85;8.57;;;;;;;1.27;100.00;94534.97;5072205;28;20083;-72
2024/01/29 00:32:40;;;;;;;11.30;8.50;;;;;;;1.11;100.00;94544.66;5073189;28;20439;-72
2024/01/29 00:35:08;;;;;;;12.80;8.18;;;;;;;1.13;100.00;94542.81;5071113;28;20051;-72
2024/01/29 00:37:35;;;;;;;15.80;8.57;;;;;;;1.11;100.00;94542.13;5073277;28;20052;-72
2024/01/29 00:40:04;;;;;;;12.27;8.50;;;;;;;1.05;100.00;94540.84;5072509;28;20048;-72
2024/01/29 00:42:33;;;;;;;12.82;9.15;;;;;;;0.93;100.00;94547.69;5074154;28;20508;-72
2024/01/29 00:44:59;;;;;;;13.63;8.95;;;;;;;0.99;100.00;94548.91;5073667;28;20078;-72
2024/01/29 00:47:26;;;;;;;12.57;9.23;;;;;;;0.85;100.00;94535.59;5074739;28;20048;-72
2024/01/29 00:49:53;;;;;;;14.43;8.70;;;;;;;1.06;100.00;94552.59;5071135;28;20115;-72
2024/01/29 00:52:20;;;;;;;16.08;9.77;;;;;;;0.96;100.00;94541.59;5075897;28;20043;-72
2024/01/29 00:54:47;;;;;;;19.50;12.20;;;;;;;0.99;100.00;94546.38;5081983;28;20054;-72
2024/01/29 00:57:15;;;;;;;13.35;9.60;;;;;;;0.71;100.00;94526.53;5069727;28;20548;-72
2024/01/29 00:59:44;;;;;;;13.98;10.32;;;;;;;0.84;100.00;94534.00;5081753;28;20461;-71
2024/01/29 01:02:11;;;;;;;14.88;9.73;;;;;;;0.81;100.00;94541.81;5074867;28;20828;-71
2024/01/29 01:04:39;;;;;;;21.00;15.73;;;;;;;0.86;100.00;94543.97;5074524;28;20055;-71
2024/01/29 01:07:06;;;;;;;14.63;9.82;;;;;;;0.82;100.00;94543.41;5076479;28;20048;-71
2024/01/29 01:09:33;;;;;;;17.65;14.13;;;;;;;1.03;100.00;94545.25;5072808;28;20074;-70
2024/01/29 01:12:00;;;;;;;19.17;14.07;;;;;;;0.95;100.00;94545.00;5073128;28;20453;-70
2024/01/29 01:14:27;;;;;;;15.82;12.90;;;;;;;1.12;100.00;94546.25;5071570;28;20051;-72
2024/01/29 01:16:55;;;;;;;14.10;10.30;;;;;;;1.25;100.00;94546.91;5081085;28;20052;-71
2024/01/29 01:19:22;;;;;;;16.77;10.20;;;;;;;1.14;100.00;94541.88;5076472;28;20036;-71
2024/01/29 01:21:49;;;;;;;13.57;10.55;;;;;;;1.03;100.00;94533.38;5071403;28;20049;-71
2024/01/29 01:24:16;;;;;;;11.45;8.70;;;;;;;1.06;100.00;94539.94;5072885;28;20052;-71
2024/01/29 01:26:43;;;;;;;11.55;8.63;;;;;;;1.05;100.00;94535.78;5074146;28;20053;-71
2024/01/29 01:29:10;;;;;;;12.93;8.95;;;;;;;1.03;100.00;94530.06;5071941;28;20037;-71
2024/01/29 01:31:37;;;;;;;12.13;9.23;;;;;;;1.24;100.00;94526.81;5073331;28;20053;-71
2024/01/29 01:34:06;;;;;;;13.30;8.65;;;;;;;1.18;100.00;94530.59;5072930;28;20044;-71
2024/01/29 01:36:33;;;;;;;17.33;10.60;;;;;;;1.26;100.00;94525.75;5076074;28;20687;-71
2024/01/29 01:39:00;;;;;;;15.70;9.93;;;;;;;1.30;100.00;94527.09;5077637;28;20524;-71
2024/01/29 01:41:27;;;;;;;17.08;11.25;;;;;;;1.48;100.00;94529.13;5070827;28;20585;-71
2024/01/29 01:43:54;;;;;;;22.35;11.20;;;;;;;1.35;100.00;94534.34;5071080;28;20048;-71
2024/01/29 01:46:22;;;;;;;22.52;11.38;;;;;;;1.53;100.00;94527.03;5074587;28;20044;-71
2024/01/29 01:48:51;;;;;;;19.75;10.68;;;;;;;1.59;100.00;94525.75;5073017;28;20047;-71
2024/01/29 01:51:20;;;;;;;17.60;10.98;;;;;;;1.70;100.00;94524.88;5072847;28;20045;-71
2024/01/29 01:53:49;;;;;;;20.02;9.75;;;;;;;1.68;100.00;94519.97;5077893;28;20046;-71
2024/01/29 01:56:17;;;;;;;21.67;14.10;;;;;;;1.77;100.00;94528.56;5073208;28;20051;-71
2024/01/29 01:58:44;;;;;;;21.20;12.43;;;;;;;1.76;100.00;94524.41;5069749;28;20371;-71
2024/01/29 02:01:14;;;;;;;16.95;9.57;;;;;;;1.80;100.00;94523.22;5074284;28;20051;-71
2024/01/29 02:03:42;;;;;;;18.20;10.65;;;;;;;1.88;100.00;94537.81;5071778;28;20043;-71
2024/01/29 02:06:10;;;;;;;19.02;9.85;;;;;;;1.91;100.00;94536.78;5082046;28;20508;-71
2024/01/29 02:08:39;;;;;;;16.08;10.27;;;;;;;1.93;100.00;94537.44;5073683;28;20052;-71
2024/01/29 02:11:06;;;;;;;18.80;10.35;;;;;;;1.95;100.00;94530.53;5076907;28;20069;-71
2024/01/29 02:13:33;;;;;;;17.90;9.98;;;;;;;1.87;100.00;94529.41;5069581;28;20501;-71
2024/01/29 02:16:02;;;;;;;16.63;9.52;;;;;;;1.90;100.00;94535.97;5078419;28;20056;-72
2024/01/29 02:18:29;;;;;;;15.80;9.60;;;;;;;1.94;100.00;94541.59;5072653;28;20041;-71
2024/01/29 02:20:56;;;;;;;16.75;9.55;;;;;;;1.92;100.00;94539.19;5071508;28;20051;-71
2024/01/29 02:23:25;;;;;;;15.40;10.15;;;;;;;1.97;100.00;94539.63;5073997;28;20144;-72
2024/01/29 02:25:52;;;;;;;16.17;10.55;;;;;;;1.93;100.00;94550.13;5076814;28;20483;-72
2024/01/29 02:28:19;;;;;;;17.42;9.88;;;;;;;1.88;100.00;94535.28;5071918;28;20056;-71
2024/01/29 02:30:46;;;;;;;17.52;10.95;;;;;;;1.85;100.00;94533.03;5074214;28;20045;-71
2024/01/29 02:33:12;;;;;;;13.82;8.15;;;;;;;1.19;100.00;94539.78;5074731;28;20484;-72
2024/01/29 02:35:39;;;;;;;13.05;8.82;;;;;;;1.42;100.00;94535.47;5069567;28;20059;-71
2024/01/29 02:38:06;;;;;;;13.60;8.60;;;;;;;1.13;100.00;94527.63;5073659;28;20045;-71
2024/01/29 02:40:35;;;;;;;12.68;9.07;;;;;;;0.88;100.00;94530.31;5074480;28;20055;-71
2024/01/29 02:43:02;;;;;;;15.98;9.68;;;;;;;0.69;100.00;94523.31;5073549;28;20051;-71
2024/01/29 02:45:29;;;;;;;14.40;9.43;;;;;;;0.76;100.00;94529.53;5071466;28;20048;-71
2024/01/29 02:47:56;;;;;;;12.93;8.52;;;;;;;0.71;100.00;94533.31;5073061;28;20037;-71
2024/01/29 02:50:25;;;;;;;16.92;11.02;;;;;;;0.73;100.00;94529.75;5067878;28;20131;-71
2024/01/29 02:52:52;;;;;;;12.40;9.02;;;;;;;0.65;100.00;94529.53;5073694;28;20106;-71
2024/01/29 02:55:19;;;;;;;61.95;32.72;;;;;;;0.44;100.00;94531.94;5068693;28;20525;-71
2024/01/29 02:57:48;;;;;;;23.27;15.13;;;;;;;0.69;100.00;94537.69;5080556;28;20040;-71
2024/01/29 03:00:15;;;;;;;21.92;17.13;;;;;;;0.55;100.00;94541.25;5070511;28;20055;-71
2024/01/29 03:02:42;;;;;;;58.33;43.13;;;;;;;0.49;100.00;94535.72;5079686;28;20044;-71
2024/01/29 03:05:09;;;;;;;53.70;42.28;;;;;;;0.49;100.00;94534.91;5068296;28;20995;-71
2024/01/29 03:07:36;;;;;;;22.63;17.25;;;;;;;0.38;100.00;94538.25;5075162;28;20040;-71
2024/01/29 03:10:03;;;;;;;31.83;23.73;;;;;;;0.22;100.00;94541.91;5069645;28;20408;-71
2024/01/29 03:12:30;;;;;;;12.95;9.73;;;;;;;0.20;100.00;94536.19;5074268;28;20459;-71
2024/01/29 03:14:59;;;;;;;31.85;22.45;;;;;;;0.39;100.00;94539.88;5069869;28;20043;-71
2024/01/29 03:17:26;;;;;;;15.60;10.90;;;;;;;0.32;100.00;94536.97;5077881;28;20040;-71
2024/01/29 03:19:52;;;;;;;15.40;10.38;;;;;;;0.31;100.00;94542.13;5070347;28;20044;-72
2024/01/29 03:22:19;;;;;;;19.98;14.68;;;;;;;0.39;100.00;94530.56;5067588;28;20049;-72
2024/01/29 03:24:46;;;;;;;14.40;9.60;;;;;;;0.37;100.00;94537.44;5069566;28;20489;-71
2024/01/29 03:27:13;;;;;;;15.77;11.85;;;;;;;0.43;100.00;94512.63;5071918;28;20044;-72
2024/01/29 03:29:40;;;;;;;20.48;13.85;;;;;;;0.49;100.00;94527.34;5073926;28;20499;-72
2024/01/29 03:32:10;;;;;;;17.83;11.65;;;;;;;0.57;100.00;94525.06;5077979;28;20048;-71
2024/01/29 03:34:40;;;;;;;15.73;12.35;;;;;;;0.44;100.00;94510.00;5070523;28;20058;-72
2024/01/29 03:37:07;;;;;;;20.52;17.10;;;;;;;0.49;100.00;94524.81;5073927;28;20531;-71
2024/01/29 03:39:34;;;;;;;20.35;14.98;;;;;;;0.56;100.00;94525.16;5085751;28;20044;-71
2024/01/29 03:42:01;;;;;;;19.00;16.38;;;;;;;0.39;100.00;94532.28;5071592;28;20048;-71
2024/01/29 03:44:28;;;;;;;15.70;10.52;;;;;;;0.37;100.00;94529.84;5069718;28;20044;-71
2024/01/29 03:46:55;;;;;;;21.35;13.02;;;;;;;0.32;100.00;94531.91;5073139;28;20050;-71
2024/01/29 03:49:23;;;;;;;27.80;14.43;;;;;;;0.39;100.00;94535.63;5068402;28;20051;-71
2024/01/29 03:51:50;;;;;;;16.77;10.25;;;;;;;0.30;100.00;94531.25;5069310;28;20132;-71
2024/01/29 03:54:17;;;;;;;18.45;11.60;;;;;;;0.41;100.00;94543.06;5070176;28;20076;-72
2024/01/29 03:56:44;;;;;;;13.48;8.60;;;;;;;0.23;100.00;94535.94;5076437;28;20444;-72
2024/01/29 03:59:11;;;;;;;15.18;9.57;;;;;;;0.16;100.00;94536.50;5069518;28;20149;-72
2024/01/29 04:01:38;;;;;;;15.05;9.93;;;;;;;0.31;100.00;94535.38;5067930;28;20094;-72
2024/01/29 04:04:09;;;;;;;14.80;8.85;;;;;;;0.36;100.00;94529.97;5072281;28;20058;-72
2024/01/29 04:06:39;;;;;;;13.95;9.25;;;;;;;0.30;100.00;94521.13;5072314;28;20059;-72
2024/01/29 04:09:09;;;;;;;15.07;9.50;;;;;;;0.25;100.00;94528.25;5071895;28;20056;-71
2024/01/29 04:11:36;;;;;;;13.73;9.20;;;;;;;0.22;100.00;94533.50;5070504;28;20522;-71
2024/01/29 04:14:03;;;;;;;15.75;9.45;;;;;;;0.27;100.00;94531.44;5067851;28;20497;-71
2024/01/29 04:16:30;;;;;;;32.30;15.80;;;;;;;0.29;100.00;94527.13;5070098;28;20049;-71
2024/01/29 04:18:57;;;;;;;32.85;16.98;;;;;;;0.33;100.00;94525.94;5070805;28;20076;-72
2024/01/29 04:21:24;;;;;;;15.65;9.82;;;;;;;0.29;100.00;94536.41;5066868;28;20492;-71
2024/01/29 04:23:53;;;;;;;14.65;9.30;;;;;;;0.33;100.00;94527.69;5071217;28;20078;-72
2024/01/29 04:26:19;;;;;;;12.10;9.70;;;;;;;0.57;100.00;94535.16;5067865;28;20090;-72
2024/01/29 04:28:47;;;;;;;16.77;10.43;;;;;;;0.63;100.00;94532.16;5068116;28;20045;-71
2024/01/29 04:31:15;;;;;;;16.58;11.30;;;;;;;0.65;100.00;94539.66;5067412;28;20493;-72
2024/01/29 04:33:43;;;;;;;16.88;11.50;;;;;;;0.63;100.00;94542.28;5068200;28;20033;-71
2024/01/29 04:36:13;;;;;;;13.40;10.10;;;;;;;0.66;100.00;94543.78;5073031;28;20086;-72
2024/01/29 04:38:42;;;;;;;27.42;14.80;;;;;;;0.57;100.00;94552.88;5077287;28;20048;-71
2024/01/29 04:41:19;;;;;;;30.38;15.98;;;;;;;0.72;100.00;94547.56;5069196;28;20416;-71
2024/01/29 04:43:46;;;;;;;20.50;11.00;;;;;;;0.72;100.00;94550.91;5070022;28;20128;-71
2024/01/29 04:46:13;;;;;;;19.20;11.23;;;;;;;0.85;100.00;94555.84;5068097;28;20052;-71
2024/01/29 04:48:40;;;;;;;20.20;12.30;;;;;;;0.90;100.00;94563.91;5067113;28;20043;-71
2024/01/29 04:51:07;;;;;;;15.30;10.38;;;;;;;0.89;100.00;94569.84;5069268;28;20049;-71
2024/01/29 04:53:34;;;;;;;15.48;9.43;;;;;;;0.69;100.00;94562.97;5070095;28;20040;-71
2024/01/29 04:56:02;;;;;;;17.60;11.65;;;;;;;0.57;100.00;94560.44;5073949;28;20054;-71
2024/01/29 04:58:31;;;;;;;16.40;10.65;;;;;;;0.84;100.00;94563.53;5082376;28;20136;-72
2024/01/29 05:00:59;;;;;;;15.10;9.82;;;;;;;0.64;100.00;94575.94;5072868;28;20760;-72
2024/01/29 05:03:26;;;;;;;13.52;10.70;;;;;;;0.47;100.00;94577.22;5077323;28;20049;-71
2024/01/29 05:05:53;;;;;;;11.63;8.82;;;;;;;0.50;100.00;94579.50;5072850;28;20049;-71
2024/01/29 05:08:20;;;;;;;16.52;12.15;;;;;;;0.51;100.00;94581.13;5068504;28;20579;-71
2024/01/29 05:10:48;;;;;;;18.25;10.68;;;;;;;0.62;100.00;94588.72;5068840;28;20079;-71
2024/01/29 05:13:15;;;;;;;15.70;10.48;;;;;;;0.59;100.00;94588.13;5072637;28;20135;-71
2024/01/29 05:15:44;;;;;;;37.90;17.63;;;;;;;0.56;100.00;94590.91;5070881;28;20063;-71
2024/01/29 05:18:11;;;;;;;37.35;18.00;;;;;;;0.58;100.00;94591.59;5076996;28;20060;-71
2024/01/29 05:20:38;;;;;;;24.70;14.25;;;;;;;0.35;100.00;94574.69;5070748;28;20054;-71
2024/01/29 05:23:05;;;;;;;18.88;11.32;;;;;;;0.38;100.00;94589.59;5069775;28;20049;-71
2024/01/29 05:25:32;;;;;;;27.98;17.73;;;;;;;0.40;100.00;94592.03;5074124;28;20058;-71
2024/01/29 05:27:59;;;;;;;27.70;16.77;;;;;;;0.38;100.00;94589.59;5072170;28;20053;-71
2024/01/29 05:30:26;;;;;;;24.10;14.82;;;;;;;0.24;100.00;94602.47;5069672;28;20094;-71
2024/01/29 05:32:55;;;;;;;51.05;22.10;;;;;;;0.29;100.00;94599.59;5074295;28;20041;-71
2024/01/29 05:35:22;;;;;;;59.45;24.58;;;;;;;0.13;100.00;94601.50;5072077;28;20527;-71
2024/01/29 05:37:49;;;;;;;55.53;25.20;;;;;;;0.18;100.00;94595.31;5073647;28;20451;-72
2024/01/29 05:40:16;;;;;;;33.42;18.98;;;;;;;0.18;100.00;94600.38;5073332;28;20131;-72
2024/01/29 05:42:43;;;;;;;24.30;16.13;;;;;;;0.22;100.00;94610.16;5080399;28;20047;-71
2024/01/29 05:45:11;;;;;;;27.20;16.95;;;;;;;0.23;100.00;94613.50;5076517;28;20044;-71
2024/01/29 05:47:38;;;;;;;29.75;15.75;;;;;;;0.16;100.00;94615.66;5068272;28;20060;-71
2024/01/29 05:50:08;;;;;;;23.05;13.32;;;;;;;0.05;100.00;94595.41;5078174;28;20059;-71
2024/01/29 05:52:36;;;;;;;21.20;13.02;;;;;;;0.31;100.00;94611.19;5072291;28;20049;-71
2024/01/29 05:55:03;;;;;;;30.77;18.38;;;;;;;0.33;100.00;94616.94;5071216;28;20051;-71
2024/01/29 05:57:30;;;;;;;30.15;17.70;;;;;;;0.27;100.00;94609.81;5067557;28;20050;-71
2024/01/29 05:59:57;;;;;;;39.95;19.48;;;;;;;0.29;100.00;94619.81;5070241;28;20089;-71
2024/01/29 06:02:24;;;;;;;21.90;13.45;;;;;;;0.17;100.00;94601.28;5078526;28;20496;-71
2024/01/29 06:04:51;;;;;;;16.35;12.38;;;;;;;0.47;100.00;94613.41;5073114;28;20053;-71
2024/01/29 06:07:19;;;;;;;21.33;12.95;;;;;;;0.49;100.00;94611.59;5073095;28;20059;-71
2024/01/29 06:09:46;;;;;;;29.52;16.15;;;;;;;0.56;100.00;94617.00;5076177;28;20060;-71
2024/01/29 06:12:13;;;;;;;24.30;16.25;;;;;;;0.69;100.00;94616.88;5070305;28;20056;-71
2024/01/29 06:14:40;;;;;;;20.35;14.18;;;;;;;0.70;100.00;94622.75;5068745;28;20051;-71
2024/01/29 06:17:07;;;;;;;18.85;13.07;;;;;;;0.89;100.00;94628.03;5080410;28;20043;-72
2024/01/29 06:19:34;;;;;;;16.50;12.45;;;;;;;1.03;100.00;94628.75;5071896;28;20055;-71
2024/01/29 06:22:00;;;;;;;19.45;13.15;;;;;;;1.05;100.00;94627.72;5072526;28;20055;-71
2024/01/29 06:24:29;;;;;;;29.70;17.60;;;;;;;1.17;100.00;94637.81;5070598;28;20040;-71
2024/01/29 06:26:56;;;;;;;32.47;17.05;;;;;;;1.19;100.00;94626.66;5070035;28;20098;-71
2024/01/29 06:29:23;;;;;;;23.25;13.95;;;;;;;1.12;100.00;94633.13;5072409;28;20128;-71
2024/01/29 06:31:49;;;;;;;23.13;14.90;;;;;;;1.24;100.00;94626.31;5073347;28;20389;-71
2024/01/29 06:34:16;;;;;;;24.67;15.73;;;;;;;1.36;100.00;94633.88;5069551;28;20048;-71
2024/01/29 06:36:43;;;;;;;22.30;13.95;;;;;;;1.42;100.00;94630.88;5073627;28;20049;-71
2024/01/29 06:39:29;;;;;;;23.15;13.90;;;;;;;1.46;100.00;94635.63;5080110;28;20048;-71
2024/01/29 06:41:57;;;;;;;21.40;14.27;;;;;;;1.47;100.00;94641.47;5071618;28;20041;-71
2024/01/29 06:44:24;;;;;;;18.70;12.85;;;;;;;1.51;100.00;94647.91;5076970;28;20048;-71
2024/01/29 06:46:51;;;;;;;20.00;13.68;;;;;;;1.57;100.00;94644.91;5074694;28;20054;-71
2024/01/29 06:49:27;;;;;;;20.63;14.43;;;;;;;1.64;100.00;94630.03;5074142;28;20055;-71
2024/01/29 06:51:54;;;;;;;22.67;15.55;;;;;;;1.71;100.00;94643.03;5069246;28;20080;-70
2024/01/29 06:54:21;;;;;;;23.38;15.95;;;;;;;1.52;100.00;94646.19;5073350;28;20045;-71
2024/01/29 06:56:48;;;;;;;21.92;15.25;;;;;;;1.50;100.00;94643.78;5072286;28;20044;-71
2024/01/29 06:59:16;;;;;;;22.55;14.07;;;;;;;1.57;100.00;94654.25;5073713;28;20048;-71
2024/01/29 07:01:43;;;;;;;29.55;17.35;;;;;;;1.36;100.00;94654.97;5073198;28;20045;-71
2024/01/29 07:04:10;;;;;;;19.55;14.18;;;;;;;1.35;100.00;94647.47;5068281;28;20047;-71
2024/01/29 07:06:37;;;;;;;23.40;16.15;;;;;;;1.42;100.00;94641.81;5069577;28;20053;-71
2024/01/29 07:09:04;;;;;;;22.40;15.07;;;;;;;1.32;100.00;94648.50;5074994;28;20055;-71
2024/01/29 07:11:31;;;;;;;22.10;15.98;;;;;;;0.84;100.00;94641.97;5069998;28;20117;-71
2024/01/29 07:13:58;;;;;;;25.40;17.48;;;;;;;0.70;100.00;94643.00;5072922;28;20084;-70
2024/01/29 07:16:27;;;;;;;23.42;16.33;;;;;;;0.56;100.00;94652.41;5070928;28;20060;-71
2024/01/29 07:18:54;;;;;;;26.45;18.27;;;;;;;0.45;100.00;94649.81;5070092;28;20036;-70
2024/01/29 07:21:21;;;;;;;21.45;15.38;;;;;;;0.20;100.00;94652.41;5069851;28;20045;-70
2024/01/29 07:23:48;;;;;;;26.70;17.33;;;;;;;0.31;100.00;94653.34;5069955;28;20048;-70
2024/01/29 07:26:15;;;;;;;27.23;18.13;;;;;;;0.28;100.00;94658.63;5069922;28;20052;-71
2024/01/29 07:28:42;;;;;;;32.35;19.95;;;;;;;0.29;100.00;94653.47;5068233;28;20501;-70
2024/01/29 07:31:09;;;;;;;22.52;15.95;;;;;;;0.36;100.00;94654.66;5070261;28;20045;-70
2024/01/29 07:33:37;;;;;;;25.58;18.33;;;;;;;0.29;100.00;94650.94;5068364;28;20045;-70
2024/01/29 07:36:05;;;;;;;26.65;19.30;;;;;;;0.36;100.00;94654.66;5070301;28;20049;-70
2024/01/29 07:38:32;;;;;;;50.58;31.90;;;;;;;0.32;100.00;94644.88;5071356;28;20051;-70
2024/01/29 07:40:59;;;;;;;30.08;17.60;;;;;;;0.23;100.00;94658.97;5070122;28;20982;-71
2024/01/29 07:43:26;;;;;;;28.05;19.27;;;;;;;0.33;100.00;94654.06;5073203;28;20036;-70
2024/01/29 07:45:52;;;;;;;30.10;18.42;;;;;;;0.45;100.00;94657.41;5070629;28;20047;-70
2024/01/29 07:48:20;;;;;;;29.42;19.50;;;;;;;0.42;100.00;94653.41;5076071;28;20500;-71
2024/01/29 07:50:48;;;;;;;31.27;19.67;;;;;;;0.44;100.00;94660.84;5074634;28;20105;-71
2024/01/29 07:53:15;;;;;;;24.60;17.35;;;;;;;0.51;100.00;94662.84;5072064;28;20538;-70
2024/01/29 07:55:42;;;;;;;29.83;18.48;;;;;;;0.39;100.00;94658.66;5068677;28;20160;-71
2024/01/29 07:58:09;;;;;;;29.55;18.50;;;;;;;0.36;100.00;94666.47;5075157;28;20058;-70
2024/01/29 08:00:36;;;;;;;26.00;19.55;;;;;;;0.47;100.00;94663.19;5069363;28;20130;-71
2024/01/29 08:03:03;;;;;;;30.13;19.83;;;;;;;0.65;100.00;94666.88;5067304;28;20496;-71
2024/01/29 08:05:30;;;;;;;23.52;15.27;;;;;;;0.65;100.00;94661.81;5070075;28;20101;-70
2024/01/29 08:07:59;;;;;;;21.05;14.88;;;;;;;0.96;100.00;94668.09;5072691;28;20056;-70
2024/01/29 08:10:26;;;;;;;20.40;14.07;;;;;;;1.03;100.00;94669.22;5069252;28;20056;-70
2024/01/29 08:12:52;;;;;;;19.50;13.88;;;;;;;1.08;100.00;94674.75;5068863;28;20070;-70
2024/01/29 08:15:19;;;;;;;20.02;14.23;;;;;;;1.00;100.00;94674.50;5080459;28;20052;-70
2024/01/29 08:17:46;;;;;;;22.83;17.65;;;;;;;0.88;100.00;94688.91;5068497;28;20059;-70
2024/01/29 08:20:13;;;;;;;28.98;19.67;;;;;;;0.93;100.00;94685.09;5069178;28;20043;-70
2024/01/29 08:22:40;;;;;;;29.17;20.30;;;;;;;1.15;100.00;94683.50;5072638;28;20059;-70
2024/01/29 08:25:09;;;;;;;24.17;16.63;;;;;;;1.18;100.00;94695.13;5067888;28;20040;-70
2024/01/29 08:27:36;;;;;;;24.08;16.20;;;;;;;1.26;100.00;94694.53;5071526;28;20135;-70
2024/01/29 08:30:03;;;;;;;21.63;15.30;;;;;;;0.93;100.00;94702.00;5071047;28;20060;-70
2024/01/29 08:32:30;;;;;;;25.23;17.00;;;;;;;1.07;100.00;94693.41;5075922;28;20044;-70
2024/01/29 08:34:57;;;;;;;29.70;19.02;;;;;;;1.24;100.00;94688.81;5083063;28;20045;-70
2024/01/29 08:37:24;;;;;;;25.67;18.00;;;;;;;1.48;100.00;94692.94;5078104;28;20052;-70
2024/01/29 08:39:51;;;;;;;21.45;14.80;;;;;;;1.46;100.00;94698.91;5071959;28;20415;-71
2024/01/29 08:42:19;;;;;;;18.27;13.40;;;;;;;1.19;100.00;94701.78;5074410;28;20062;-71
2024/01/29 08:44:46;;;;;;;23.60;16.52;;;;;;;1.36;100.00;94705.59;5074020;28;20040;-71
2024/01/29 08:47:13;;;;;;;53.83;29.85;;;;;;;1.16;100.00;94705.34;5070888;28;20117;-71
2024/01/29 08:49:40;;;;;;;57.53;32.78;;;;;;;1.06;100.00;94702.72;5075903;28;20052;-71
2024/01/29 08:52:07;;;;;;;55.42;30.63;;;;;;;1.00;100.00;94712.47;5071889;28;20048;-70
2024/01/29 08:54:34;;;;;;;54.65;31.42;;;;;;;1.07;100.00;94688.34;5072094;28;20044;-70
2024/01/29 08:57:02;;;;;;;43.35;26.38;;;;;;;1.09;100.00;94701.66;5076164;28;20056;-71
2024/01/29 08:59:31;;;;;;;32.33;20.55;;;;;;;1.24;100.00;94704.78;5071243;28;20070;-71
2024/01/29 09:01:58;;;;;;;23.30;15.82;;;;;;;1.44;100.00;94702.50;5078076;28;20364;-71
2024/01/29 09:04:26;;;;;;;44.00;25.77;;;;;;;1.22;100.00;94706.63;5073427;28;20040;-71
2024/01/29 09:06:53;;;;;;;145.02;83.78;;;;;;;1.17;100.00;94689.22;5075361;28;20106;-71
2024/01/29 09:09:20;;;;;;;76.38;61.40;;;;;;;1.44;100.00;94705.81;5071930;28;20044;-71
2024/01/29 09:11:47;;;;;;;48.53;43.20;;;;;;;1.52;100.00;94707.75;5073617;28;20049;-71
2024/01/29 09:14:14;;;;;;;25.25;17.92;;;;;;;1.23;100.00;94693.06;5071298;28;20063;-71
2024/01/29 09:16:43;;;;;;;20.60;13.25;;;;;;;1.58;100.00;94706.50;5077617;28;20048;-71
2024/01/29 09:19:10;;;;;;;20.90;13.60;;;;;;;1.81;100.00;94711.53;5077868;28;20059;-71
2024/01/29 09:21:37;;;;;;;23.13;14.48;;;;;;;1.86;100.00;94709.44;5072758;28;20067;-70
2024/01/29 09:24:04;;;;;;;20.48;13.48;;;;;;;1.91;100.00;94709.09;5080925;28;20044;-71
2024/01/29 09:26:31;;;;;;;23.85;15.90;;;;;;;1.71;100.00;94708.91;5072515;28;20416;-70
2024/01/29 09:28:58;;;;;;;16.02;10.48;;;;;;;1.74;100.00;94713.72;5071362;28;20075;-70
2024/01/29 09:31:25;;;;;;;27.63;16.33;;;;;;;1.75;100.00;94707.72;5072784;28;20048;-71
2024/01/29 09:33:54;;;;;;;15.02;10.80;;;;;;;1.79;100.00;94714.19;5073023;28;20052;-70
2024/01/29 09:36:21;;;;;;;32.97;28.20;;;;;;;1.73;100.00;94709.59;5071697;28;20045;-70
2024/01/29 09:38:47;;;;;;;13.52;11.07;;;;;;;1.62;100.00;94717.19;5071907;28;20070;-71
2024/01/29 09:41:14;;;;;;;13.32;8.77;;;;;;;1.30;100.00;94709.38;5071838;28;20560;-70
2024/01/29 09:43:41;;;;;;;14.18;9.23;;;;;;;1.68;100.00;94714.19;5077929;28;20078;-70
2024/01/29 09:46:08;;;;;;;15.85;11.23;;;;;;;1.55;100.00;94706.72;5075760;28;20167;-70
2024/01/29 09:48:37;;;;;;;18.35;13.13;;;;;;;1.48;100.00;94708.91;5069811;28;20116;-70
2024/01/29 09:51:07;;;;;;;20.85;13.23;;;;;;;1.62;100.00;94694.41;5071510;28;20045;-70
2024/01/29 09:53:36;;;;;;;23.75;17.52;;;;;;;1.66;100.00;94694.03;5078592;28;20101;-71
2024/01/29 09:56:04;;;;;;;19.80;13.75;;;;;;;1.60;100.00;94708.00;5070859;28;20055;-71
2024/01/29 09:58:32;;;;;;;15.55;11.50;;;;;;;1.54;100.00;94702.59;5069713;28;20056;-71
2024/01/29 10:01:02;;;;;;;24.65;17.00;;;;;;;1.76;100.00;94704.28;5076489;28;20926;-71
2024/01/29 10:03:31;;;;;;;26.38;18.70;;;;;;;1.84;100.00;94688.47;5076487;28;20047;-71
2024/01/29 10:05:58;;;;;;;20.60;13.55;;;;;;;1.69;100.00;94696.34;5071378;28;20059;-71
2024/01/29 10:08:29;;;;;;;15.85;12.00;;;;;;;1.74;100.00;94701.06;5071334;28;20059;-71
2024/01/29 10:10:56;;;;;;;18.77;14.48;;;;;;;1.75;99.90;94682.41;5069218;28;20045;-71
2024/01/29 10:13:23;;;;;;;15.52;11.70;;;;;;;1.44;100.00;94690.63;5069614;28;20041;-70
2024/01/29 10:15:51;;;;;;;19.63;12.13;;;;;;;1.50;97.38;94696.13;5070182;28;20051;-70
2024/01/29 10:18:19;;;;;;;19.70;14.05;;;;;;;1.42;100.00;94689.94;5078694;28;20638;-70
2024/01/29 10:20:47;;;;;;;30.98;21.20;;;;;;;0.90;100.00;94621.25;5073004;28;20040;-70
2024/01/29 10:23:14;;;;;;;18.80;12.70;;;;;;;1.26;100.00;94682.72;5070056;28;20387;-70
2024/01/29 10:25:42;;;;;;;20.00;13.77;;;;;;;1.39;100.00;94681.78;5072023;28;20464;-70
2024/01/29 10:28:13;;;;;;;21.35;17.33;;;;;;;1.45;100.00;94684.63;5069503;28;20056;-70
2024/01/29 10:30:41;;;;;;;18.75;14.13;;;;;;;1.32;100.00;94691.56;5070756;28;20580;-70
2024/01/29 10:33:08;;;;;;;28.95;23.80;;;;;;;1.24;99.66;94688.81;5071874;28;20044;-69
2024/01/29 10:35:36;;;;;;;16.00;10.55;;;;;;;1.05;98.08;94690.97;5070426;28;20488;-70
2024/01/29 10:38:07;;;;;;;16.75;10.68;;;;;;;1.04;100.00;94691.09;5083518;28;20044;-70
2024/01/29 10:40:35;;;;;;;22.15;15.45;;;;;;;1.19;100.00;94682.34;5073648;28;20525;-69
2024/01/29 10:43:03;;;;;;;27.58;16.65;;;;;;;1.11;100.00;94658.53;5074667;28;20044;-70
2024/01/29 10:45:34;;;;;;;19.63;13.77;;;;;;;1.18;100.00;94675.69;5070749;28;20094;-70
2024/01/29 10:48:13;;;;;;;29.02;16.52;;;;;;;1.28;100.00;94672.44;5073434;28;20056;-70
2024/01/29 10:50:41;;;;;;;25.77;18.20;;;;;;;1.24;100.00;94676.16;5075341;28;20056;-71
2024/01/29 10:53:09;;;;;;;19.05;12.73;;;;;;;1.22;100.00;94662.78;5067252;28;20048;-70
2024/01/29 10:55:37;;;;;;;18.60;11.88;;;;;;;1.59;100.00;94660.00;5071925;28;20125;-70
2024/01/29 10:58:06;;;;;;;13.45;8.63;;;;;;;1.71;97.71;94650.66;5069758;28;20514;-70
2024/01/29 11:00:36;;;;;;;23.02;14.05;;;;;;;1.75;94.63;94662.13;5071210;28;20052;-70
2024/01/29 11:03:05;;;;;;;13.23;9.32;;;;;;;1.42;94.83;94663.81;5071697;28;20082;-70
2024/01/29 11:05:33;;;;;;;13.20;9.02;;;;;;;1.82;94.52;94665.00;5070588;28;20131;-70
2024/01/29 11:08:03;;;;;;;12.18;8.20;;;;;;;1.84;91.05;94660.59;5070615;28;20505;-70
2024/01/29 11:10:32;;;;;;;11.95;7.50;;;;;;;1.93;90.96;94657.38;5069378;28;20118;-70
2024/01/29 11:13:01;;;;;;;11.95;7.63;;;;;;;1.77;87.80;94651.88;5069893;28;20052;-70
2024/01/29 11:15:30;;;;;;;13.38;8.13;;;;;;;2.06;87.64;94666.53;5069642;28;20048;-70
2024/01/29 11:17:58;;;;;;;11.82;6.90;;;;;;;2.02;86.31;94663.44;5070966;28;20417;-70
2024/01/29 11:20:25;;;;;;;14.63;8.80;;;;;;;1.84;88.26;94658.88;5067646;28;20052;-70